Hertfordshire — ZDJS5 — position and weather

sailwx.info

Track history (hours):
 
Tides and Currents Weather Stations Pressure Air Temp Water Temp Dewpoint Dewpoint Depression Visibility Wind Speed Wind Dir Waves Ship Positions

Hertfordshire

Last reported at 2014-Aug-02 02:22 UTC. Time now 2014-Aug-02 02:39 UTC.
Position N 52°58' E 001°11'.

Length 83 m; draft 3.4 m.

Type: Cargo ship. MMSI: 236563000.

Date/timePositionNaut miles runAvg speedWind from/ knotsBaromVisibWave heightAir tempDewpointWater temp
2014-Aug-02 02:22N 52°58' E 001°11'0 0.1
2014-Aug-02 01:22N 52°58' E 001°11'0 0.0
2014-Aug-02 00:16N 52°58' E 001°11'0 0.0
2014-Aug-01 23:28N 52°58' E 001°11'0 0.0
2014-Aug-01 22:28N 52°58' E 001°11'0 0.0
2014-Aug-01 18:28N 52°58' E 001°11'0 0.0
2014-Aug-01 17:22N 52°58' E 001°11'0 0.0
2014-Aug-01 15:22N 52°58' E 001°11'0 0.0
2014-Aug-01 12:28N 52°58' E 001°11'4110.4
2014-Aug-01 08:32N 53°32' E 000°34'1211.9
2014-Aug-01 07:33N 53°43' E 000°25'1212.1
2014-Aug-01 06:33N 53°53' E 000°15'1212.1
2014-Aug-01 05:34N 54°04' E 000°05'1212.1
2014-Aug-01 04:34N 54°14' W 000°05'1110.8
2014-Aug-01 03:34N 54°23' W 000°15'1010.1
2014-Aug-01 02:34N 54°31' W 000°25'9 9.0
2014-Aug-01 01:33N 54°40' W 000°32'10 9.6
2014-Aug-01 00:33N 54°48' W 000°40'10 9.6
2014-Jul-31 23:33N 54°56' W 000°49'10 9.9
2014-Jul-31 22:33N 55°05' W 000°58'129 4.0
2014-Jul-30 14:18N 57°09' W 002°03'1 1.0
2014-Jul-30 13:32N 57°09' W 002°05'0 0.0
2014-Jul-30 12:32N 57°09' W 002°05'0 0.0
2014-Jul-30 11:32N 57°09' W 002°05'0 0.0
2014-Jul-30 10:32N 57°09' W 002°05'0 0.0
2014-Jul-30 09:32N 57°09' W 002°05'0 0.0
2014-Jul-30 08:32N 57°09' W 002°05'0 0.0
2014-Jul-30 07:32N 57°09' W 002°05'0 0.0
2014-Jul-30 06:32N 57°09' W 002°05'0 0.0
2014-Jul-30 05:32N 57°09' W 002°05'0 0.0
2014-Jul-30 04:32N 57°09' W 002°05'0 0.0
2014-Jul-30 03:32N 57°09' W 002°05'0 0.0
2014-Jul-30 02:32N 57°09' W 002°05'0 0.0
2014-Jul-30 01:32N 57°09' W 002°05'0 0.0
2014-Jul-30 00:32N 57°09' W 002°05'0 0.0
2014-Jul-29 23:32N 57°09' W 002°05'0 0.0
2014-Jul-29 22:32N 57°09' W 002°05'113 4.9
2014-Jul-28 23:27N 55°18' W 001°23'1011.5
2014-Jul-28 22:33N 55°08' W 001°20'1111.6
2014-Jul-28 21:33N 54°57' W 001°16'1111.4
2014-Jul-28 20:33N 54°46' W 001°12'1 1.0
2014-Jul-28 19:30N 54°44' W 001°12'0 0.1
2014-Jul-28 18:18N 54°44' W 001°12'0 0.0
2014-Jul-28 17:03N 54°44' W 001°12'0 0.0
2014-Jul-28 16:21N 54°44' W 001°12'0 0.0
2014-Jul-28 15:18N 54°44' W 001°12'0 0.0
2014-Jul-28 14:33N 54°44' W 001°12'0 0.0
2014-Jul-28 13:33N 54°44' W 001°12'0 0.0
2014-Jul-28 12:33N 54°44' W 001°12'0 0.0
2014-Jul-28 11:21N 54°44' W 001°12'0 0.0
2014-Jul-28 10:33N 54°44' W 001°12'0 0.0
2014-Jul-28 09:27N 54°44' W 001°12'0 0.0
2014-Jul-28 08:27N 54°44' W 001°12'0 0.0
2014-Jul-28 07:30N 54°44' W 001°12'0 0.0
2014-Jul-28 06:15N 54°44' W 001°12'0 0.0
2014-Jul-28 05:18N 54°44' W 001°12'0 0.0
2014-Jul-28 04:27N 54°44' W 001°12'0 0.0
2014-Jul-28 03:33N 54°44' W 001°12'0 0.0
2014-Jul-28 02:33N 54°44' W 001°12'0 0.0
2014-Jul-28 01:30N 54°44' W 001°12'0 0.1
2014-Jul-28 00:33N 54°44' W 001°12'0 0.0
2014-Jul-27 23:30N 54°44' W 001°12'0 0.0
2014-Jul-27 22:33N 54°44' W 001°12'0 0.0
2014-Jul-27 21:24N 54°44' W 001°12'0 0.0
2014-Jul-27 20:30N 54°44' W 001°12'0 0.1
2014-Jul-27 19:33N 54°44' W 001°12'0 0.0
2014-Jul-27 18:33N 54°44' W 001°12'0 0.0
2014-Jul-27 17:33N 54°44' W 001°12'0 0.0
2014-Jul-27 16:33N 54°44' W 001°12'0 0.0
2014-Jul-27 15:33N 54°44' W 001°12'0 0.0
2014-Jul-27 14:33N 54°44' W 001°12'0 0.0
2014-Jul-27 13:33N 54°44' W 001°12'0 0.0
2014-Jul-27 12:33N 54°44' W 001°12'0 0.0
2014-Jul-27 11:15N 54°44' W 001°12'0 0.0
2014-Jul-27 10:33N 54°44' W 001°12'0 0.0
2014-Jul-27 09:33N 54°44' W 001°12'0 0.0
2014-Jul-27 08:33N 54°44' W 001°12'0 0.0
2014-Jul-27 07:24N 54°44' W 001°12'0 0.0
2014-Jul-27 06:33N 54°44' W 001°12'0 0.0
2014-Jul-27 05:33N 54°44' W 001°12'0 0.0
2014-Jul-27 04:33N 54°44' W 001°12'0 0.0
2014-Jul-27 03:33N 54°44' W 001°12'0 0.0
2014-Jul-27 02:33N 54°44' W 001°12'0 0.0
2014-Jul-27 01:33N 54°44' W 001°12'0 0.0
2014-Jul-27 00:33N 54°44' W 001°12'0 0.0
2014-Jul-26 23:33N 54°44' W 001°12'0 0.1
2014-Jul-26 22:30N 54°45' W 001°12'0 0.0
2014-Jul-26 21:29N 54°45' W 001°12'9 9.9
2014-Jul-26 20:33N 54°41' W 000°57'1511.5
2014-Jul-26 19:13N 54°34' W 000°33'710.7
2014-Jul-26 18:33N 54°29' W 000°24'1010.3
2014-Jul-26 17:33N 54°21' W 000°13'10 9.8
2014-Jul-26 16:33N 54°13' W 000°03'9 9.1
2014-Jul-26 15:34N 54°06' E 000°05'10 9.6
2014-Jul-26 14:33N 53°57' E 000°14'1010.1
2014-Jul-26 13:33N 53°49' E 000°22'1110.6
2014-Jul-26 12:33N 53°39' E 000°29'1212.0
2014-Jul-26 11:33N 53°28' E 000°37'1312.2
2014-Jul-26 10:27N 53°15' E 000°44'1111.6
2014-Jul-26 09:32N 53°08' E 000°56'1010.2
2014-Jul-26 08:33N 53°01' E 001°09'9 9.1
2014-Jul-26 07:33N 52°57' E 001°22'9 8.6
2014-Jul-26 06:33N 52°52' E 001°34'9 8.7
2014-Jul-26 05:33N 52°47' E 001°46'9 8.7
2014-Jul-26 04:34N 52°40' E 001°54'1211.6
2014-Jul-26 03:33N 52°29' E 001°53'1412.5
2014-Jul-26 02:28N 52°15' E 001°51'1112.6
2014-Jul-26 01:33N 52°04' E 001°50'1212.1
2014-Jul-26 00:33N 51°52' E 001°49'1111.4
2014-Jul-25 23:33N 51°40' E 001°48'1010.0
2014-Jul-25 22:33N 51°32' E 001°38'1010.1
2014-Jul-25 21:33N 51°25' E 001°27'1 1.4
2014-Jul-25 20:33N 51°25' E 001°25'0 0.0
2014-Jul-25 19:33N 51°25' E 001°25'0 0.0
2014-Jul-25 18:33N 51°25' E 001°25'0 0.0
2014-Jul-25 17:33N 51°25' E 001°25'0 0.0
2014-Jul-25 16:33N 51°25' E 001°25'0 0.0
2014-Jul-25 15:33N 51°25' E 001°25'0 0.0
2014-Jul-25 14:33N 51°25' E 001°25'0 0.0
2014-Jul-25 13:33N 51°25' E 001°25'0 0.0
2014-Jul-25 12:33N 51°25' E 001°25'0 0.1
2014-Jul-25 11:34N 51°25' E 001°25'0 0.0
2014-Jul-25 10:33N 51°25' E 001°25'7 6.8
2014-Jul-25 09:34N 51°22' E 001°34'10 9.5
2014-Jul-25 08:33N 51°12' E 001°36'8 8.0
2014-Jul-25 07:34N 51°07' E 001°27'27 8.3
2014-Jul-25 04:15N 50°50' E 000°52'8 8.9
2014-Jul-25 03:24N 50°46' E 000°42'7 8.8
2014-Jul-25 02:34N 50°43' E 000°32'9 8.9
2014-Jul-25 01:34N 50°41' E 000°18'18 9.2
2014-Jul-24 23:34N 50°47' W 000°10'4 4.2
2014-Jul-24 22:32N 50°50' W 000°15'0 0.0
2014-Jul-24 21:32N 50°50' W 000°15'0 0.0
2014-Jul-24 20:32N 50°50' W 000°15'0 0.0
2014-Jul-24 19:32N 50°50' W 000°15'0 0.0
2014-Jul-24 18:32N 50°50' W 000°15'0 0.0
2014-Jul-24 17:32N 50°50' W 000°15'0 0.0
2014-Jul-24 16:32N 50°50' W 000°15'0 0.0
2014-Jul-24 15:29N 50°50' W 000°15'0 0.0
2014-Jul-24 14:32N 50°50' W 000°15'0 0.0
2014-Jul-24 13:32N 50°50' W 000°15'0 0.0
2014-Jul-24 12:32N 50°50' W 000°15'0 0.0
2014-Jul-24 11:29N 50°50' W 000°15'0 0.0
2014-Jul-24 10:32N 50°50' W 000°15'1 0.6
2014-Jul-24 09:33N 50°49' W 000°15'8 8.5
2014-Jul-24 08:33N 50°43' W 000°25'1110.6
2014-Jul-24 07:33N 50°38' W 000°39'1711.9
2014-Jul-24 06:07N 50°34' W 001°05'  
Track history (hours):
 
Tides and Currents Weather Stations Pressure Air Temp Water Temp Dewpoint Dewpoint Depression Visibility Wind Speed Wind Dir Waves Ship Positions

Hertfordshire

Last reported at 2014-Aug-02 02:22 UTC. Time now 2014-Aug-02 02:39 UTC.
Position N 52°58' E 001°11'.

Length 83 m; draft 3.4 m.

Type: Cargo ship. MMSI: 236563000.

Date/timePositionNaut miles runAvg speedWind from/ knotsBaromVisibWave heightAir tempDewpointWater temp
2014-Aug-02 02:22N 52°58' E 001°11'0 0.1
2014-Aug-02 01:22N 52°58' E 001°11'0 0.0
2014-Aug-02 00:16N 52°58' E 001°11'0 0.0
2014-Aug-01 23:28N 52°58' E 001°11'0 0.0
2014-Aug-01 22:28N 52°58' E 001°11'0 0.0
2014-Aug-01 18:28N 52°58' E 001°11'0 0.0
2014-Aug-01 17:22N 52°58' E 001°11'0 0.0
2014-Aug-01 15:22N 52°58' E 001°11'0 0.0
2014-Aug-01 12:28N 52°58' E 001°11'4110.4
2014-Aug-01 08:32N 53°32' E 000°34'1211.9
2014-Aug-01 07:33N 53°43' E 000°25'1212.1
2014-Aug-01 06:33N 53°53' E 000°15'1212.1
2014-Aug-01 05:34N 54°04' E 000°05'1212.1
2014-Aug-01 04:34N 54°14' W 000°05'1110.8
2014-Aug-01 03:34N 54°23' W 000°15'1010.1
2014-Aug-01 02:34N 54°31' W 000°25'9 9.0
2014-Aug-01 01:33N 54°40' W 000°32'10 9.6
2014-Aug-01 00:33N 54°48' W 000°40'10 9.6
2014-Jul-31 23:33N 54°56' W 000°49'10 9.9
2014-Jul-31 22:33N 55°05' W 000°58'129 4.0
2014-Jul-30 14:18N 57°09' W 002°03'1 1.0
2014-Jul-30 13:32N 57°09' W 002°05'0 0.0
2014-Jul-30 12:32N 57°09' W 002°05'0 0.0
2014-Jul-30 11:32N 57°09' W 002°05'0 0.0
2014-Jul-30 10:32N 57°09' W 002°05'0 0.0
2014-Jul-30 09:32N 57°09' W 002°05'0 0.0
2014-Jul-30 08:32N 57°09' W 002°05'0 0.0
2014-Jul-30 07:32N 57°09' W 002°05'0 0.0
2014-Jul-30 06:32N 57°09' W 002°05'0 0.0
2014-Jul-30 05:32N 57°09' W 002°05'0 0.0
2014-Jul-30 04:32N 57°09' W 002°05'0 0.0
2014-Jul-30 03:32N 57°09' W 002°05'0 0.0
2014-Jul-30 02:32N 57°09' W 002°05'0 0.0
2014-Jul-30 01:32N 57°09' W 002°05'0 0.0
2014-Jul-30 00:32N 57°09' W 002°05'0 0.0
2014-Jul-29 23:32N 57°09' W 002°05'0 0.0
2014-Jul-29 22:32N 57°09' W 002°05'113 4.9
2014-Jul-28 23:27N 55°18' W 001°23'1011.5
2014-Jul-28 22:33N 55°08' W 001°20'1111.6
2014-Jul-28 21:33N 54°57' W 001°16'1111.4
2014-Jul-28 20:33N 54°46' W 001°12'1 1.0
2014-Jul-28 19:30N 54°44' W 001°12'0 0.1
2014-Jul-28 18:18N 54°44' W 001°12'0 0.0
2014-Jul-28 17:03N 54°44' W 001°12'0 0.0
2014-Jul-28 16:21N 54°44' W 001°12'0 0.0
2014-Jul-28 15:18N 54°44' W 001°12'0 0.0
2014-Jul-28 14:33N 54°44' W 001°12'0 0.0
2014-Jul-28 13:33N 54°44' W 001°12'0 0.0
2014-Jul-28 12:33N 54°44' W 001°12'0 0.0
2014-Jul-28 11:21N 54°44' W 001°12'0 0.0
2014-Jul-28 10:33N 54°44' W 001°12'0 0.0
2014-Jul-28 09:27N 54°44' W 001°12'0 0.0
2014-Jul-28 08:27N 54°44' W 001°12'0 0.0
2014-Jul-28 07:30N 54°44' W 001°12'0 0.0
2014-Jul-28 06:15N 54°44' W 001°12'0 0.0
2014-Jul-28 05:18N 54°44' W 001°12'0 0.0
2014-Jul-28 04:27N 54°44' W 001°12'0 0.0
2014-Jul-28 03:33N 54°44' W 001°12'0 0.0
2014-Jul-28 02:33N 54°44' W 001°12'0 0.0
2014-Jul-28 01:30N 54°44' W 001°12'0 0.1
2014-Jul-28 00:33N 54°44' W 001°12'0 0.0
2014-Jul-27 23:30N 54°44' W 001°12'0 0.0
2014-Jul-27 22:33N 54°44' W 001°12'0 0.0
2014-Jul-27 21:24N 54°44' W 001°12'0 0.0
2014-Jul-27 20:30N 54°44' W 001°12'0 0.1
2014-Jul-27 19:33N 54°44' W 001°12'0 0.0
2014-Jul-27 18:33N 54°44' W 001°12'0 0.0
2014-Jul-27 17:33N 54°44' W 001°12'0 0.0
2014-Jul-27 16:33N 54°44' W 001°12'0 0.0
2014-Jul-27 15:33N 54°44' W 001°12'0 0.0
2014-Jul-27 14:33N 54°44' W 001°12'0 0.0
2014-Jul-27 13:33N 54°44' W 001°12'0 0.0
2014-Jul-27 12:33N 54°44' W 001°12'0 0.0
2014-Jul-27 11:15N 54°44' W 001°12'0 0.0
2014-Jul-27 10:33N 54°44' W 001°12'0 0.0
2014-Jul-27 09:33N 54°44' W 001°12'0 0.0
2014-Jul-27 08:33N 54°44' W 001°12'0 0.0
2014-Jul-27 07:24N 54°44' W 001°12'0 0.0
2014-Jul-27 06:33N 54°44' W 001°12'0 0.0
2014-Jul-27 05:33N 54°44' W 001°12'0 0.0
2014-Jul-27 04:33N 54°44' W 001°12'0 0.0
2014-Jul-27 03:33N 54°44' W 001°12'0 0.0
2014-Jul-27 02:33N 54°44' W 001°12'0 0.0
2014-Jul-27 01:33N 54°44' W 001°12'0 0.0
2014-Jul-27 00:33N 54°44' W 001°12'0 0.0
2014-Jul-26 23:33N 54°44' W 001°12'0 0.1
2014-Jul-26 22:30N 54°45' W 001°12'0 0.0
2014-Jul-26 21:29N 54°45' W 001°12'9 9.9
2014-Jul-26 20:33N 54°41' W 000°57'1511.5
2014-Jul-26 19:13N 54°34' W 000°33'710.7
2014-Jul-26 18:33N 54°29' W 000°24'1010.3
2014-Jul-26 17:33N 54°21' W 000°13'10 9.8
2014-Jul-26 16:33N 54°13' W 000°03'9 9.1
2014-Jul-26 15:34N 54°06' E 000°05'10 9.6
2014-Jul-26 14:33N 53°57' E 000°14'1010.1
2014-Jul-26 13:33N 53°49' E 000°22'1110.6
2014-Jul-26 12:33N 53°39' E 000°29'1212.0
2014-Jul-26 11:33N 53°28' E 000°37'1312.2
2014-Jul-26 10:27N 53°15' E 000°44'1111.6
2014-Jul-26 09:32N 53°08' E 000°56'1010.2
2014-Jul-26 08:33N 53°01' E 001°09'9 9.1
2014-Jul-26 07:33N 52°57' E 001°22'9 8.6
2014-Jul-26 06:33N 52°52' E 001°34'9 8.7
2014-Jul-26 05:33N 52°47' E 001°46'9 8.7
2014-Jul-26 04:34N 52°40' E 001°54'1211.6
2014-Jul-26 03:33N 52°29' E 001°53'1412.5
2014-Jul-26 02:28N 52°15' E 001°51'1112.6
2014-Jul-26 01:33N 52°04' E 001°50'1212.1
2014-Jul-26 00:33N 51°52' E 001°49'1111.4
2014-Jul-25 23:33N 51°40' E 001°48'1010.0
2014-Jul-25 22:33N 51°32' E 001°38'1010.1
2014-Jul-25 21:33N 51°25' E 001°27'1 1.4
2014-Jul-25 20:33N 51°25' E 001°25'0 0.0
2014-Jul-25 19:33N 51°25' E 001°25'0 0.0
2014-Jul-25 18:33N 51°25' E 001°25'0 0.0
2014-Jul-25 17:33N 51°25' E 001°25'0 0.0
2014-Jul-25 16:33N 51°25' E 001°25'0 0.0
2014-Jul-25 15:33N 51°25' E 001°25'0 0.0
2014-Jul-25 14:33N 51°25' E 001°25'0 0.0
2014-Jul-25 13:33N 51°25' E 001°25'0 0.0
2014-Jul-25 12:33N 51°25' E 001°25'0 0.1
2014-Jul-25 11:34N 51°25' E 001°25'0 0.0
2014-Jul-25 10:33N 51°25' E 001°25'7 6.8
2014-Jul-25 09:34N 51°22' E 001°34'10 9.5
2014-Jul-25 08:33N 51°12' E 001°36'8 8.0
2014-Jul-25 07:34N 51°07' E 001°27'27 8.3
2014-Jul-25 04:15N 50°50' E 000°52'8 8.9
2014-Jul-25 03:24N 50°46' E 000°42'7 8.8
2014-Jul-25 02:34N 50°43' E 000°32'9 8.9
2014-Jul-25 01:34N 50°41' E 000°18'18 9.2
2014-Jul-24 23:34N 50°47' W 000°10'4 4.2
2014-Jul-24 22:32N 50°50' W 000°15'0 0.0
2014-Jul-24 21:32N 50°50' W 000°15'0 0.0
2014-Jul-24 20:32N 50°50' W 000°15'0 0.0
2014-Jul-24 19:32N 50°50' W 000°15'0 0.0
2014-Jul-24 18:32N 50°50' W 000°15'0 0.0
2014-Jul-24 17:32N 50°50' W 000°15'0 0.0
2014-Jul-24 16:32N 50°50' W 000°15'0 0.0
2014-Jul-24 15:29N 50°50' W 000°15'0 0.0
2014-Jul-24 14:32N 50°50' W 000°15'0 0.0
2014-Jul-24 13:32N 50°50' W 000°15'0 0.0
2014-Jul-24 12:32N 50°50' W 000°15'0 0.0
2014-Jul-24 11:29N 50°50' W 000°15'0 0.0
2014-Jul-24 10:32N 50°50' W 000°15'1 0.6
2014-Jul-24 09:33N 50°49' W 000°15'8 8.5
2014-Jul-24 08:33N 50°43' W 000°25'1110.6
2014-Jul-24 07:33N 50°38' W 000°39'1711.9
2014-Jul-24 06:07N 50°34' W 001°05'  

Dump ship's entire track history